createdAt,value
2018-12-14T00:01:50.475Z,80.76
2018-12-14T00:04:19.713Z,80.86
2018-12-14T00:06:48.914Z,80.40
2018-12-14T00:09:18.066Z,80.13
2018-12-14T00:11:47.206Z,80.50
2018-12-14T00:14:16.367Z,80.59
2018-12-14T00:16:45.517Z,80.41
2018-12-14T00:19:14.694Z,80.18
2018-12-14T00:21:43.951Z,80.10
2018-12-14T00:24:13.292Z,80.35
2018-12-14T00:26:42.425Z,80.12
2018-12-14T00:29:11.546Z,80.71
2018-12-14T00:31:41.617Z,81.33
2018-12-14T00:34:10.770Z,81.14
2018-12-14T00:36:39.914Z,80.95
2018-12-14T00:39:09.083Z,80.78
2018-12-14T00:41:38.258Z,79.91
2018-12-14T00:44:07.415Z,80.32
2018-12-14T00:46:41.479Z,80.49
2018-12-14T00:49:11.269Z,81.18
2018-12-14T00:51:40.445Z,80.49
2018-12-14T00:54:09.633Z,80.10
2018-12-14T00:56:38.773Z,81.20
2018-12-14T00:59:07.906Z,80.58
2018-12-14T01:01:37.046Z,79.93
2018-12-14T01:04:06.229Z,80.36
2018-12-14T01:06:35.416Z,80.50
2018-12-14T01:09:05.209Z,81.05
2018-12-14T01:11:34.600Z,81.10
2018-12-14T01:14:03.913Z,81.38
2018-12-14T01:16:33.046Z,81.11
2018-12-14T01:19:02.277Z,81.21
2018-12-14T01:21:31.423Z,80.43
2018-12-14T01:24:00.539Z,81.30
2018-12-14T01:26:29.661Z,81.07
2018-12-14T01:28:58.787Z,81.18
2018-12-14T01:31:27.993Z,80.40
2018-12-14T01:33:57.171Z,80.66
2018-12-14T01:36:26.308Z,80.73
2018-12-14T01:38:55.467Z,80.08
2018-12-14T01:41:24.589Z,80.00
2018-12-14T01:43:53.758Z,80.64
2018-12-14T01:46:22.878Z,81.47
2018-12-14T01:48:52.059Z,80.66
2018-12-14T01:51:21.364Z,81.57
2018-12-14T01:53:58.465Z,80.92
2018-12-14T01:56:27.597Z,80.41
2018-12-14T01:58:56.708Z,80.61
2018-12-14T02:01:25.839Z,80.65
2018-12-14T02:03:54.974Z,80.16
2018-12-14T02:06:24.242Z,79.59
2018-12-14T02:08:53.388Z,79.50
2018-12-14T02:11:22.669Z,79.52
2018-12-14T02:13:52.248Z,79.92
2018-12-14T02:16:21.391Z,80.83
2018-12-14T02:18:50.505Z,80.24
2018-12-14T02:21:19.678Z,79.83
2018-12-14T02:23:48.828Z,81.08
2018-12-14T02:26:18.009Z,80.28
2018-12-14T02:28:47.151Z,79.66
2018-12-14T02:31:16.299Z,80.25
2018-12-14T02:33:45.476Z,80.20
2018-12-14T02:36:14.646Z,79.92
2018-12-14T02:38:43.870Z,80.07
2018-12-14T02:41:13.284Z,79.59
2018-12-14T02:43:42.587Z,80.15
2018-12-14T02:46:11.740Z,80.70
2018-12-14T02:48:40.897Z,80.11
2018-12-14T02:51:10.038Z,80.49
2018-12-14T02:53:39.194Z,79.78
2018-12-14T02:56:08.348Z,79.87
2018-12-14T02:58:37.518Z,80.60
2018-12-14T03:01:06.816Z,79.99
2018-12-14T03:03:36.138Z,79.76
2018-12-14T03:06:05.307Z,80.79
2018-12-14T03:08:34.469Z,79.62
2018-12-14T03:11:03.738Z,81.48
2018-12-14T03:13:33.257Z,80.81
2018-12-14T03:16:02.777Z,81.05
2018-12-14T03:18:32.386Z,80.75
2018-12-14T03:21:01.858Z,81.05
2018-12-14T03:23:31.003Z,81.10
2018-12-14T03:26:00.315Z,80.61
2018-12-14T03:28:29.476Z,80.46
2018-12-14T03:30:58.627Z,80.43
2018-12-14T03:33:27.785Z,80.76
2018-12-14T03:35:56.966Z,80.96
2018-12-14T03:38:26.091Z,79.43
2018-12-14T03:40:57.412Z,80.59
2018-12-14T03:43:26.558Z,81.04
2018-12-14T03:45:55.839Z,80.94
2018-12-14T03:48:25.101Z,80.00
2018-12-14T03:50:54.253Z,81.07
2018-12-14T03:53:23.567Z,82.25
2018-12-14T03:55:52.899Z,80.85
2018-12-14T03:58:22.069Z,80.33
2018-12-14T04:00:51.207Z,79.76
2018-12-14T04:03:20.338Z,80.45
2018-12-14T04:05:49.607Z,81.16
2018-12-14T04:08:18.727Z,80.56
2018-12-14T04:10:47.858Z,80.96
2018-12-14T04:13:17.019Z,80.41
2018-12-14T04:15:46.153Z,81.47
2018-12-14T04:18:15.297Z,80.47
2018-12-14T04:20:44.642Z,80.66
2018-12-14T04:23:13.813Z,80.92
2018-12-14T04:25:42.966Z,80.37
2018-12-14T04:28:12.107Z,80.30
2018-12-14T04:30:41.239Z,80.92
2018-12-14T04:33:10.380Z,81.04
2018-12-14T04:35:39.552Z,80.58
2018-12-14T04:38:08.687Z,79.83
2018-12-14T04:40:37.826Z,79.87
2018-12-14T04:43:06.983Z,81.05
2018-12-14T04:45:36.106Z,80.12
2018-12-14T04:48:05.444Z,80.94
2018-12-14T04:50:34.579Z,81.21
2018-12-14T04:53:04.393Z,80.65
2018-12-14T04:55:33.958Z,80.24
2018-12-14T04:58:03.117Z,80.14
2018-12-14T05:00:32.253Z,80.74
2018-12-14T05:03:01.415Z,81.54
2018-12-14T05:05:30.649Z,80.25
2018-12-14T05:07:59.920Z,81.36
2018-12-14T05:10:29.010Z,81.33
2018-12-14T05:12:58.342Z,81.36
2018-12-14T05:15:27.505Z,80.08
2018-12-14T05:17:56.670Z,79.95
2018-12-14T05:20:25.813Z,80.38
2018-12-14T05:22:55.053Z,80.55
2018-12-14T05:25:26.225Z,80.66
2018-12-14T05:27:55.441Z,81.04
2018-12-14T05:30:24.723Z,81.21
2018-12-14T05:32:53.906Z,79.94
2018-12-14T05:35:23.087Z,80.69
2018-12-14T05:37:52.259Z,80.19
2018-12-14T05:40:21.357Z,80.29
2018-12-14T05:42:50.985Z,80.65
2018-12-14T05:45:22.016Z,80.28
2018-12-14T05:47:51.119Z,80.36
2018-12-14T05:50:20.284Z,80.88
2018-12-14T05:52:49.425Z,79.79
2018-12-14T05:55:18.582Z,81.10
2018-12-14T05:57:47.847Z,80.85
2018-12-14T06:00:17.042Z,80.54
2018-12-14T06:02:46.202Z,81.00
2018-12-14T06:05:15.490Z,80.09
2018-12-14T06:07:44.613Z,80.53
2018-12-14T06:10:14.061Z,80.45
2018-12-14T06:12:43.206Z,80.44
2018-12-14T06:15:12.381Z,81.22
2018-12-14T06:17:41.543Z,80.17
2018-12-14T06:20:10.669Z,80.19
2018-12-14T06:22:39.862Z,81.58
2018-12-14T06:25:08.983Z,81.21
2018-12-14T06:27:38.120Z,80.92
2018-12-14T06:30:07.495Z,81.01
2018-12-14T06:32:36.638Z,80.69
2018-12-14T06:35:05.832Z,81.98
2018-12-14T06:37:35.075Z,82.93
2018-12-14T06:40:05.526Z,81.58
2018-12-14T06:42:34.713Z,81.05
2018-12-14T06:45:05.367Z,81.58
2018-12-14T06:47:34.593Z,81.19
2018-12-14T06:50:04.249Z,81.93
2018-12-14T06:52:33.539Z,82.06
2018-12-14T06:55:02.675Z,81.53
2018-12-14T06:57:31.873Z,81.55
2018-12-14T07:00:00.983Z,82.16
2018-12-14T07:02:33.515Z,81.79
2018-12-14T07:05:03.148Z,81.83
2018-12-14T07:07:32.388Z,82.55
2018-12-14T07:10:01.521Z,82.54
2018-12-14T07:12:30.922Z,82.36
2018-12-14T07:15:00.067Z,82.04
2018-12-14T07:17:29.183Z,82.07
2018-12-14T07:19:58.327Z,83.41
2018-12-14T07:22:27.495Z,82.95
2018-12-14T07:24:56.670Z,82.97
2018-12-14T07:27:25.812Z,83.43
2018-12-14T07:29:54.947Z,82.96
2018-12-14T07:32:24.108Z,83.34
2018-12-14T07:34:53.350Z,82.50
2018-12-14T07:37:22.490Z,82.69
2018-12-14T07:39:52.408Z,83.27
2018-12-14T07:42:21.536Z,83.31
2018-12-14T07:44:50.813Z,82.27
2018-12-14T07:47:20.053Z,82.57
2018-12-14T07:49:49.255Z,82.33
2018-12-14T07:52:18.397Z,81.67
2018-12-14T07:54:47.696Z,82.66
2018-12-14T07:57:17.432Z,81.67
2018-12-14T07:59:46.891Z,81.84
2018-12-14T08:02:16.064Z,81.25
2018-12-14T08:04:45.398Z,80.54
2018-12-14T08:07:14.972Z,80.21
2018-12-14T08:09:44.175Z,81.20
2018-12-14T08:12:13.304Z,81.02
2018-12-14T08:14:42.790Z,80.05
2018-12-14T08:17:12.215Z,81.12
2018-12-14T08:19:41.412Z,80.43
2018-12-14T08:22:10.913Z,80.69
2018-12-14T08:24:40.108Z,80.52
2018-12-14T08:27:09.315Z,79.82
2018-12-14T08:29:38.463Z,79.70
2018-12-14T08:32:07.734Z,79.23
2018-12-14T08:34:37.071Z,79.67
2018-12-14T08:37:06.228Z,81.91
2018-12-14T08:39:35.368Z,79.88
2018-12-14T08:42:04.521Z,78.78
2018-12-14T08:44:33.715Z,79.37
2018-12-14T08:47:02.867Z,78.56
2018-12-14T08:49:32.393Z,79.33
2018-12-14T08:52:01.541Z,78.40
2018-12-14T08:54:30.784Z,79.12
2018-12-14T08:56:59.999Z,78.03
2018-12-14T08:59:29.205Z,77.56
2018-12-14T09:01:58.423Z,77.44
2018-12-14T09:04:27.613Z,77.73
2018-12-14T09:06:56.803Z,78.15
2018-12-14T09:09:25.977Z,78.20
2018-12-14T09:11:55.117Z,76.93
2018-12-14T09:14:24.308Z,76.78
2018-12-14T09:16:53.598Z,77.24
2018-12-14T09:19:22.748Z,76.79
2018-12-14T09:21:52.065Z,75.25
2018-12-14T09:24:21.205Z,75.52
2018-12-14T09:26:50.369Z,76.60
2018-12-14T09:29:19.558Z,76.81
2018-12-14T09:31:48.888Z,77.12
2018-12-14T09:34:18.107Z,76.59
2018-12-14T09:36:47.346Z,74.06
2018-12-14T09:39:16.740Z,72.33
2018-12-14T09:41:45.999Z,70.46
2018-12-14T09:44:15.159Z,69.11
2018-12-14T09:46:44.458Z,69.79
2018-12-14T09:49:13.564Z,67.81
2018-12-14T09:51:42.721Z,66.48
2018-12-14T09:54:11.891Z,66.70
2018-12-14T09:56:41.142Z,66.30
2018-12-14T09:59:10.286Z,65.45
2018-12-14T10:01:39.475Z,64.42
2018-12-14T10:04:08.747Z,63.46
2018-12-14T10:06:37.939Z,65.87
2018-12-14T10:09:07.079Z,66.42
2018-12-14T10:11:36.241Z,65.07
2018-12-14T10:14:06.248Z,66.16
2018-12-14T10:16:35.557Z,64.76
2018-12-14T10:19:04.909Z,61.64
2018-12-14T10:21:34.048Z,62.48
2018-12-14T10:24:03.219Z,62.97
2018-12-14T10:26:32.704Z,63.72
2018-12-14T10:29:01.945Z,63.82
2018-12-14T10:31:31.065Z,64.97
2018-12-14T10:34:00.204Z,64.80
2018-12-14T10:36:29.496Z,65.11
2018-12-14T10:38:58.796Z,64.25
2018-12-14T10:41:27.990Z,63.45
2018-12-14T10:43:57.169Z,62.96
2018-12-14T10:46:26.409Z,64.18
2018-12-14T10:48:55.660Z,63.94
2018-12-14T10:51:25.108Z,63.53
2018-12-14T10:53:54.350Z,65.15
2018-12-14T10:56:23.632Z,66.76
2018-12-14T10:58:52.774Z,68.25
2018-12-14T11:01:27.584Z,71.42
2018-12-14T11:03:56.685Z,72.35
2018-12-14T11:06:25.851Z,70.86
2018-12-14T11:08:55.049Z,70.82
2018-12-14T11:11:24.203Z,71.70
2018-12-14T11:13:53.375Z,72.04
2018-12-14T11:16:22.509Z,71.60
2018-12-14T11:18:51.637Z,70.40
2018-12-14T11:21:20.736Z,70.39
2018-12-14T11:23:49.909Z,70.45
2018-12-14T11:26:19.056Z,70.66
2018-12-14T11:28:48.321Z,70.38
2018-12-14T11:31:17.638Z,70.21
2018-12-14T11:33:48.156Z,71.01
2018-12-14T11:36:17.635Z,71.21
2018-12-14T11:38:46.859Z,71.58
2018-12-14T11:41:18.533Z,72.10
2018-12-14T11:43:47.387Z,72.46
2018-12-14T11:46:16.522Z,71.58
2018-12-14T11:48:45.680Z,71.83
2018-12-14T11:51:15.031Z,71.55
2018-12-14T11:53:44.199Z,72.24
2018-12-14T11:56:13.357Z,71.35
2018-12-14T11:58:42.481Z,71.03
2018-12-14T12:01:11.693Z,71.84
2018-12-14T12:03:42.933Z,71.40
2018-12-14T12:06:12.351Z,70.18
2018-12-14T12:08:41.744Z,70.98
2018-12-14T12:11:10.943Z,71.06
2018-12-14T12:13:40.141Z,71.00
2018-12-14T12:16:09.267Z,70.67
2018-12-14T12:18:38.537Z,70.63
2018-12-14T12:21:07.711Z,70.87
2018-12-14T12:23:36.817Z,71.14
2018-12-14T12:26:06.027Z,71.55
2018-12-14T12:28:35.326Z,71.80
2018-12-14T12:31:04.459Z,71.26
2018-12-14T12:33:33.642Z,72.60
2018-12-14T12:36:02.900Z,71.77
2018-12-14T12:38:37.921Z,71.59
2018-12-14T12:41:03.345Z,71.72
2018-12-14T12:43:32.511Z,71.56
2018-12-14T12:46:01.719Z,71.17
2018-12-14T12:48:30.979Z,71.37
2018-12-14T12:51:03.315Z,70.75
2018-12-14T12:53:32.630Z,72.02
2018-12-14T12:56:01.833Z,71.15
2018-12-14T12:58:30.966Z,70.73
2018-12-14T13:01:00.140Z,71.56
2018-12-14T13:03:29.382Z,70.36
2018-12-14T13:05:58.524Z,71.37
2018-12-14T13:08:27.718Z,71.98
2018-12-14T13:10:57.230Z,71.26
2018-12-14T13:13:26.383Z,71.57
2018-12-14T13:15:55.702Z,71.06
2018-12-14T13:18:24.919Z,70.89
2018-12-14T13:20:54.123Z,71.07
2018-12-14T13:23:23.233Z,70.93
2018-12-14T13:25:52.629Z,71.02
2018-12-14T13:28:22.237Z,70.27
2018-12-14T13:30:51.904Z,70.39
2018-12-14T13:33:21.308Z,71.24
2018-12-14T13:35:50.682Z,70.97
2018-12-14T13:38:20.075Z,71.31
2018-12-14T13:40:49.280Z,71.34
2018-12-14T13:43:18.557Z,70.82
2018-12-14T13:45:47.790Z,70.98
2018-12-14T13:55:02.591Z,71.84
2018-12-14T13:57:31.778Z,71.75
2018-12-14T14:00:00.958Z,70.82
2018-12-14T14:02:30.153Z,71.35
2018-12-14T14:04:59.319Z,72.04
2018-12-14T14:07:28.491Z,72.72
2018-12-14T14:09:57.670Z,72.95
2018-12-14T14:12:30.818Z,72.07
2018-12-14T14:14:58.085Z,72.12
2018-12-14T14:17:27.314Z,71.80
2018-12-14T14:19:56.534Z,70.80
2018-12-14T14:22:25.824Z,72.16
2018-12-14T14:24:55.021Z,72.12
2018-12-14T14:27:24.129Z,70.98
2018-12-14T14:29:53.306Z,70.89
2018-12-14T14:32:22.496Z,71.27
2018-12-14T14:34:51.772Z,71.32
2018-12-14T14:37:20.898Z,71.43
2018-12-14T14:39:50.149Z,69.73
2018-12-14T14:42:19.367Z,69.79
2018-12-14T14:44:48.490Z,70.72
2018-12-14T14:47:17.738Z,69.95
2018-12-14T14:49:46.991Z,70.31
2018-12-14T14:52:16.370Z,70.80
2018-12-14T14:54:45.529Z,69.97
2018-12-14T14:57:14.714Z,70.28
2018-12-14T14:59:43.891Z,70.25
2018-12-14T15:02:13.118Z,70.28
2018-12-14T15:04:42.223Z,69.88
2018-12-14T15:07:11.655Z,70.10
2018-12-14T15:09:41.133Z,70.14
2018-12-14T15:12:10.259Z,71.12
2018-12-14T15:14:39.429Z,71.18
2018-12-14T15:17:08.756Z,71.74
2018-12-14T15:19:37.970Z,71.03
2018-12-14T15:22:07.235Z,71.34
2018-12-14T15:24:36.420Z,71.47
2018-12-14T15:27:05.648Z,71.54
2018-12-14T15:29:34.850Z,72.10
2018-12-14T15:32:04.171Z,72.17
2018-12-14T15:34:33.321Z,72.09
2018-12-14T15:37:02.480Z,72.33
2018-12-14T15:39:31.671Z,71.65
2018-12-14T15:42:00.787Z,70.96
2018-12-14T15:44:29.949Z,72.45
2018-12-14T15:46:59.136Z,71.79
2018-12-14T15:49:28.663Z,71.49
2018-12-14T15:51:57.771Z,72.01
2018-12-14T15:54:26.952Z,72.26
2018-12-14T15:56:56.137Z,72.72
2018-12-14T15:59:25.285Z,71.77
2018-12-14T16:01:54.514Z,71.83
2018-12-14T16:04:23.629Z,72.13
2018-12-14T16:06:52.839Z,71.82
2018-12-14T16:09:21.980Z,72.57
2018-12-14T16:11:51.170Z,72.43
2018-12-14T16:14:20.355Z,71.44
2018-12-14T16:16:49.487Z,72.57
2018-12-14T16:19:18.760Z,72.89
2018-12-14T16:21:47.981Z,71.63
2018-12-14T16:24:17.299Z,73.08
2018-12-14T16:26:46.521Z,72.57
2018-12-14T16:29:15.962Z,72.60
2018-12-14T16:31:45.117Z,71.70
2018-12-14T16:34:14.261Z,71.99
2018-12-14T16:36:43.635Z,71.78
2018-12-14T16:39:12.773Z,72.90
2018-12-14T16:41:41.967Z,72.49
2018-12-14T16:44:11.105Z,72.38
2018-12-14T16:46:40.249Z,72.09
2018-12-14T16:49:09.508Z,72.26
2018-12-14T16:51:38.703Z,72.22
2018-12-14T16:54:07.887Z,70.94
2018-12-14T16:56:37.349Z,72.22
2018-12-14T16:59:06.475Z,71.02
2018-12-14T17:01:50.432Z,71.29
2018-12-14T17:04:19.617Z,71.65
2018-12-14T17:06:48.872Z,72.29
2018-12-14T17:09:18.094Z,71.94
2018-12-14T17:11:47.341Z,70.97
2018-12-14T17:14:16.634Z,71.90
2018-12-14T17:16:45.779Z,72.33
2018-12-14T17:19:14.986Z,72.01
2018-12-14T17:21:44.199Z,72.13
2018-12-14T17:24:13.656Z,72.79
2018-12-14T17:26:42.930Z,72.83
2018-12-14T17:29:12.063Z,72.15
2018-12-14T17:31:41.600Z,72.73
2018-12-14T17:34:10.719Z,72.77
2018-12-14T17:36:39.994Z,74.97
2018-12-14T17:39:09.134Z,72.50
2018-12-14T17:41:38.446Z,72.70
2018-12-14T17:44:07.639Z,73.33
2018-12-14T17:46:37.051Z,71.51
2018-12-14T17:49:06.195Z,72.48
2018-12-14T17:51:35.710Z,72.83
2018-12-14T17:54:04.953Z,71.83
2018-12-14T17:56:34.087Z,72.65
2018-12-14T17:59:03.223Z,72.14
2018-12-14T18:01:32.416Z,72.14
2018-12-14T18:04:01.685Z,72.36
2018-12-14T18:06:30.823Z,72.97
2018-12-14T18:09:00.070Z,73.08
2018-12-14T18:11:29.259Z,72.87
2018-12-14T18:13:58.541Z,72.64
2018-12-14T18:16:27.982Z,73.89
2018-12-14T18:18:57.514Z,73.68
2018-12-14T18:21:26.650Z,72.97
2018-12-14T18:23:55.900Z,73.35
2018-12-14T18:26:25.210Z,74.46
2018-12-14T18:28:54.342Z,72.71
2018-12-14T18:31:23.552Z,73.90
2018-12-14T18:33:52.867Z,73.62
2018-12-14T18:36:22.005Z,72.79
2018-12-14T18:38:51.155Z,73.55
2018-12-14T18:41:20.358Z,72.98
2018-12-14T18:43:49.481Z,74.19
2018-12-14T18:46:18.727Z,74.46
2018-12-14T18:48:47.927Z,73.82
2018-12-14T18:51:17.206Z,74.10
2018-12-14T18:53:51.851Z,73.89
2018-12-14T18:56:24.926Z,74.72
2018-12-14T18:58:54.373Z,73.66
2018-12-14T19:01:23.619Z,74.84
2018-12-14T19:03:54.375Z,74.31
2018-12-14T19:06:23.640Z,74.27
2018-12-14T19:08:52.764Z,74.38
2018-12-14T19:11:21.901Z,74.33
2018-12-14T19:13:51.055Z,73.20
2018-12-14T19:16:20.234Z,74.35
2018-12-14T19:18:49.362Z,74.48
2018-12-14T19:21:18.516Z,73.89
2018-12-14T19:23:47.724Z,74.69
2018-12-14T19:26:16.860Z,73.45
2018-12-14T19:28:46.096Z,73.14
2018-12-14T19:31:15.780Z,74.50
2018-12-14T19:33:44.922Z,74.37
2018-12-14T19:36:14.072Z,73.72
2018-12-14T19:38:43.226Z,74.42
2018-12-14T19:41:13.122Z,74.28
2018-12-14T19:43:42.270Z,73.49
2018-12-14T19:46:11.575Z,74.73
2018-12-14T19:48:41.673Z,73.84
2018-12-14T19:51:12.946Z,74.64
2018-12-14T19:53:43.233Z,73.94
2018-12-14T19:56:12.352Z,74.83
2018-12-14T19:58:41.652Z,73.93
2018-12-14T20:01:10.809Z,74.70
2018-12-14T20:03:40.091Z,74.92
2018-12-14T20:06:13.380Z,74.99
2018-12-14T20:08:42.607Z,74.10
2018-12-14T20:11:12.008Z,74.47
2018-12-14T20:13:41.228Z,74.14
2018-12-14T20:16:12.927Z,74.03
2018-12-14T20:18:43.409Z,74.63
2018-12-14T20:21:13.109Z,74.77
2018-12-14T20:23:45.567Z,74.38
2018-12-14T20:26:21.705Z,74.62
2018-12-14T20:28:51.553Z,74.49
2018-12-14T20:31:22.463Z,75.35
2018-12-14T20:33:51.685Z,74.99
2018-12-14T20:36:20.962Z,75.26
2018-12-14T20:38:51.374Z,74.61
2018-12-14T20:41:20.533Z,75.28
2018-12-14T20:43:49.688Z,75.47
2018-12-14T20:46:19.487Z,75.36
2018-12-14T20:48:48.869Z,75.20
2018-12-14T20:51:18.049Z,74.24
2018-12-14T20:53:47.539Z,74.20
2018-12-14T20:56:16.840Z,74.30
2018-12-14T20:58:46.140Z,74.04
2018-12-14T21:01:15.371Z,74.72
2018-12-14T21:03:44.554Z,74.29
2018-12-14T21:06:13.831Z,74.52
2018-12-14T21:08:43.026Z,74.23
2018-12-14T21:11:12.250Z,75.14
2018-12-14T21:13:41.420Z,74.94
2018-12-14T21:16:10.611Z,73.59
2018-12-14T21:18:40.305Z,74.07
2018-12-14T21:21:09.813Z,74.10
2018-12-14T21:23:41.452Z,74.01
2018-12-14T21:26:10.602Z,73.61
2018-12-14T21:28:39.812Z,73.95
2018-12-14T21:31:10.131Z,74.22
2018-12-14T21:33:39.321Z,73.29
2018-12-14T21:36:10.162Z,73.04
2018-12-14T21:38:40.170Z,73.47
2018-12-14T21:41:09.410Z,72.63
2018-12-14T21:43:38.717Z,72.84
2018-12-14T21:46:07.868Z,73.33
2018-12-14T21:48:37.072Z,73.08
2018-12-14T21:51:06.236Z,72.75
2018-12-14T21:53:35.417Z,72.92
2018-12-14T21:56:04.587Z,72.07
2018-12-14T21:58:33.882Z,72.91
2018-12-14T22:01:03.177Z,73.36
2018-12-14T22:03:34.678Z,71.73
2018-12-14T22:06:03.942Z,72.12
2018-12-14T22:08:33.097Z,72.74
2018-12-14T22:11:02.242Z,73.40
2018-12-14T22:13:31.399Z,73.04
2018-12-14T22:16:00.566Z,72.57
2018-12-14T22:18:29.736Z,73.29
2018-12-14T22:20:58.895Z,73.37
2018-12-14T22:23:28.055Z,74.24
2018-12-14T22:25:57.228Z,73.50
2018-12-14T22:28:26.334Z,73.99
2018-12-14T22:30:55.485Z,73.84
2018-12-14T22:33:24.645Z,72.70
2018-12-14T22:35:53.783Z,74.08
2018-12-14T22:38:22.983Z,73.13
2018-12-14T22:40:52.130Z,73.82
2018-12-14T22:43:21.227Z,74.66
2018-12-14T22:45:50.392Z,74.35
2018-12-14T22:48:19.792Z,74.15
2018-12-14T22:50:48.964Z,75.29
2018-12-14T22:53:18.077Z,74.04
2018-12-14T22:55:47.265Z,75.97
2018-12-14T22:58:16.419Z,74.60
2018-12-14T23:00:51.578Z,75.69
2018-12-14T23:03:21.107Z,74.47
2018-12-14T23:05:50.482Z,74.82
2018-12-14T23:08:19.613Z,74.90
2018-12-14T23:10:49.162Z,75.10
2018-12-14T23:13:18.347Z,75.46
2018-12-14T23:15:47.514Z,76.35
2018-12-14T23:18:17.003Z,75.94
2018-12-14T23:20:46.176Z,75.31
2018-12-14T23:23:15.720Z,75.65
2018-12-14T23:25:44.912Z,76.00
2018-12-14T23:28:14.096Z,77.04
2018-12-14T23:30:43.263Z,77.03
2018-12-14T23:33:15.272Z,76.21
2018-12-14T23:35:44.456Z,77.27
2018-12-14T23:38:13.605Z,75.82
2018-12-14T23:40:42.770Z,77.32
2018-12-14T23:43:12.036Z,76.84
2018-12-14T23:45:41.150Z,76.52
2018-12-14T23:48:10.303Z,77.13
2018-12-14T23:50:39.465Z,77.14
2018-12-14T23:53:09.095Z,76.51
2018-12-14T23:55:38.229Z,76.55
2018-12-14T23:58:07.359Z,77.26
